sensor_id;sensor_type;location;lat;lon;timestamp;P1;durP1;ratioP1;P2;durP2;ratioP2
53391;SDS011;41667;51.922;8.850;2022-08-11T00:00:00;2.50;;;2.30;;
53391;SDS011;41667;51.922;8.850;2022-08-11T00:02:27;2.53;;;2.33;;
53391;SDS011;41667;51.922;8.850;2022-08-11T00:04:55;3.00;;;2.35;;
53391;SDS011;41667;51.922;8.850;2022-08-11T00:07:21;4.07;;;2.35;;
53391;SDS011;41667;51.922;8.850;2022-08-11T00:09:46;3.50;;;2.55;;
53391;SDS011;41667;51.922;8.850;2022-08-11T00:12:13;4.20;;;2.97;;
53391;SDS011;41667;51.922;8.850;2022-08-11T00:14:38;5.00;;;2.58;;
53391;SDS011;41667;51.922;8.850;2022-08-11T00:17:05;3.13;;;2.15;;
53391;SDS011;41667;51.922;8.850;2022-08-11T00:19:34;3.35;;;2.35;;
53391;SDS011;41667;51.922;8.850;2022-08-11T00:22:01;8.60;;;2.50;;
53391;SDS011;41667;51.922;8.850;2022-08-11T00:24:37;2.58;;;2.38;;
53391;SDS011;41667;51.922;8.850;2022-08-11T00:27:02;4.45;;;2.33;;
53391;SDS011;41667;51.922;8.850;2022-08-11T00:29:28;3.20;;;2.38;;
53391;SDS011;41667;51.922;8.850;2022-08-11T00:31:54;3.70;;;2.53;;
53391;SDS011;41667;51.922;8.850;2022-08-11T00:34:24;7.35;;;2.78;;
53391;SDS011;41667;51.922;8.850;2022-08-11T00:37:06;3.15;;;2.63;;
53391;SDS011;41667;51.922;8.850;2022-08-11T00:39:34;3.75;;;2.45;;
53391;SDS011;41667;51.922;8.850;2022-08-11T00:44:43;4.88;;;2.40;;
53391;SDS011;41667;51.922;8.850;2022-08-11T01:02:32;3.60;;;3.20;;
53391;SDS011;41667;51.922;8.850;2022-08-11T01:10:41;4.35;;;2.63;;
53391;SDS011;41667;51.922;8.850;2022-08-11T01:13:32;4.60;;;2.60;;
53391;SDS011;41667;51.922;8.850;2022-08-11T01:16:28;4.32;;;2.60;;
53391;SDS011;41667;51.922;8.850;2022-08-11T01:22:05;4.78;;;2.75;;
53391;SDS011;41667;51.922;8.850;2022-08-11T01:24:42;4.30;;;3.00;;
53391;SDS011;41667;51.922;8.850;2022-08-11T01:32:36;3.45;;;2.45;;
53391;SDS011;41667;51.922;8.850;2022-08-11T01:40:25;3.20;;;2.90;;
53391;SDS011;41667;51.922;8.850;2022-08-11T01:43:08;3.33;;;2.25;;
53391;SDS011;41667;51.922;8.850;2022-08-11T01:46:00;9.90;;;3.75;;
53391;SDS011;41667;51.922;8.850;2022-08-11T01:48:34;4.60;;;2.85;;
53391;SDS011;41667;51.922;8.850;2022-08-11T01:53:44;3.22;;;2.75;;
53391;SDS011;41667;51.922;8.850;2022-08-11T02:01:29;5.28;;;2.95;;
53391;SDS011;41667;51.922;8.850;2022-08-11T02:06:38;2.88;;;2.65;;
53391;SDS011;41667;51.922;8.850;2022-08-11T02:10:03;4.47;;;2.90;;
53391;SDS011;41667;51.922;8.850;2022-08-11T02:12:13;3.88;;;3.35;;
53391;SDS011;41667;51.922;8.850;2022-08-11T02:14:41;4.70;;;3.00;;
53391;SDS011;41667;51.922;8.850;2022-08-11T02:17:11;5.35;;;3.05;;
53391;SDS011;41667;51.922;8.850;2022-08-11T02:19:41;6.38;;;2.70;;
53391;SDS011;41667;51.922;8.850;2022-08-11T02:28:06;8.60;;;2.75;;
53391;SDS011;41667;51.922;8.850;2022-08-11T02:30:36;4.10;;;2.67;;
53391;SDS011;41667;51.922;8.850;2022-08-11T02:38:44;4.40;;;3.10;;
53391;SDS011;41667;51.922;8.850;2022-08-11T02:41:20;5.80;;;2.80;;
53391;SDS011;41667;51.922;8.850;2022-08-11T02:46:50;6.32;;;2.95;;
53391;SDS011;41667;51.922;8.850;2022-08-11T02:49:39;5.28;;;2.97;;
53391;SDS011;41667;51.922;8.850;2022-08-11T02:52:34;3.65;;;2.70;;
53391;SDS011;41667;51.922;8.850;2022-08-11T02:57:56;3.78;;;2.15;;
53391;SDS011;41667;51.922;8.850;2022-08-11T03:00:23;3.50;;;2.25;;
53391;SDS011;41667;51.922;8.850;2022-08-11T03:03:03;4.13;;;2.63;;
53391;SDS011;41667;51.922;8.850;2022-08-11T03:05:44;3.70;;;2.35;;
53391;SDS011;41667;51.922;8.850;2022-08-11T03:08:17;2.38;;;2.25;;
53391;SDS011;41667;51.922;8.850;2022-08-11T03:13:33;2.88;;;2.55;;
53391;SDS011;41667;51.922;8.850;2022-08-11T03:16:27;2.72;;;2.30;;
53391;SDS011;41667;51.922;8.850;2022-08-11T03:24:35;2.40;;;2.17;;
53391;SDS011;41667;51.922;8.850;2022-08-11T03:29:30;2.95;;;2.75;;
53391;SDS011;41667;51.922;8.850;2022-08-11T03:32:06;2.65;;;2.45;;
53391;SDS011;41667;51.922;8.850;2022-08-11T03:34:32;2.50;;;2.30;;
53391;SDS011;41667;51.922;8.850;2022-08-11T03:37:10;5.38;;;2.10;;
53391;SDS011;41667;51.922;8.850;2022-08-11T03:40:02;2.67;;;2.05;;
53391;SDS011;41667;51.922;8.850;2022-08-11T03:45:16;9.97;;;2.87;;
53391;SDS011;41667;51.922;8.850;2022-08-11T03:47:47;3.30;;;2.92;;
53391;SDS011;41667;51.922;8.850;2022-08-11T03:55:13;2.50;;;2.20;;
53391;SDS011;41667;51.922;8.850;2022-08-11T03:57:44;2.58;;;2.30;;
53391;SDS011;41667;51.922;8.850;2022-08-11T04:10:36;2.58;;;2.20;;
53391;SDS011;41667;51.922;8.850;2022-08-11T04:16:00;2.88;;;2.10;;
53391;SDS011;41667;51.922;8.850;2022-08-11T04:21:07;3.88;;;2.30;;
53391;SDS011;41667;51.922;8.850;2022-08-11T04:23:49;2.47;;;2.30;;
53391;SDS011;41667;51.922;8.850;2022-08-11T04:31:43;6.70;;;2.63;;
53391;SDS011;41667;51.922;8.850;2022-08-11T04:36:54;5.22;;;2.08;;
53391;SDS011;41667;51.922;8.850;2022-08-11T04:39:51;2.00;;;1.80;;
53391;SDS011;41667;51.922;8.850;2022-08-11T04:57:05;5.13;;;2.00;;
53391;SDS011;41667;51.922;8.850;2022-08-11T05:00:00;2.72;;;2.20;;
53391;SDS011;41667;51.922;8.850;2022-08-11T05:05:27;3.97;;;2.25;;
53391;SDS011;41667;51.922;8.850;2022-08-11T05:08:05;5.10;;;2.20;;
53391;SDS011;41667;51.922;8.850;2022-08-11T05:13:26;2.20;;;2.00;;
53391;SDS011;41667;51.922;8.850;2022-08-11T05:16:11;2.25;;;1.95;;
53391;SDS011;41667;51.922;8.850;2022-08-11T05:18:56;3.05;;;2.75;;
53391;SDS011;41667;51.922;8.850;2022-08-11T05:21:41;2.47;;;2.25;;
53391;SDS011;41667;51.922;8.850;2022-08-11T05:24:38;3.47;;;2.08;;
53391;SDS011;41667;51.922;8.850;2022-08-11T05:27:24;2.40;;;2.20;;
53391;SDS011;41667;51.922;8.850;2022-08-11T05:30:12;2.75;;;2.40;;
53391;SDS011;41667;51.922;8.850;2022-08-11T05:33:05;3.28;;;2.20;;
53391;SDS011;41667;51.922;8.850;2022-08-11T05:35:49;3.30;;;2.00;;
53391;SDS011;41667;51.922;8.850;2022-08-11T05:38:20;2.65;;;2.45;;
53391;SDS011;41667;51.922;8.850;2022-08-11T05:41:05;4.65;;;1.90;;
53391;SDS011;41667;51.922;8.850;2022-08-11T05:43:49;2.72;;;2.25;;
53391;SDS011;41667;51.922;8.850;2022-08-11T05:46:40;3.08;;;2.08;;
53391;SDS011;41667;51.922;8.850;2022-08-11T05:49:25;2.10;;;1.98;;
53391;SDS011;41667;51.922;8.850;2022-08-11T05:52:15;2.55;;;1.80;;
53391;SDS011;41667;51.922;8.850;2022-08-11T05:55:03;2.28;;;2.08;;
53391;SDS011;41667;51.922;8.850;2022-08-11T05:57:47;2.60;;;2.40;;
53391;SDS011;41667;51.922;8.850;2022-08-11T06:00:13;2.97;;;1.67;;
53391;SDS011;41667;51.922;8.850;2022-08-11T06:02:41;2.97;;;1.90;;
53391;SDS011;41667;51.922;8.850;2022-08-11T06:05:07;2.65;;;1.60;;
53391;SDS011;41667;51.922;8.850;2022-08-11T06:07:32;6.32;;;2.55;;
53391;SDS011;41667;51.922;8.850;2022-08-11T06:09:58;2.40;;;2.03;;
53391;SDS011;41667;51.922;8.850;2022-08-11T06:12:27;2.13;;;1.92;;
53391;SDS011;41667;51.922;8.850;2022-08-11T06:14:57;6.15;;;2.35;;
53391;SDS011;41667;51.922;8.850;2022-08-11T06:17:26;2.10;;;1.90;;
53391;SDS011;41667;51.922;8.850;2022-08-11T06:19:51;2.17;;;1.98;;
53391;SDS011;41667;51.922;8.850;2022-08-11T06:22:23;2.50;;;1.83;;
53391;SDS011;41667;51.922;8.850;2022-08-11T06:24:50;2.75;;;1.60;;
53391;SDS011;41667;51.922;8.850;2022-08-11T06:27:20;2.38;;;1.80;;
53391;SDS011;41667;51.922;8.850;2022-08-11T06:29:49;2.05;;;1.80;;
53391;SDS011;41667;51.922;8.850;2022-08-11T06:32:14;1.77;;;1.65;;
53391;SDS011;41667;51.922;8.850;2022-08-11T06:37:26;2.83;;;1.48;;
53391;SDS011;41667;51.922;8.850;2022-08-11T06:40:12;2.17;;;1.98;;
53391;SDS011;41667;51.922;8.850;2022-08-11T06:45:22;2.25;;;1.73;;
53391;SDS011;41667;51.922;8.850;2022-08-11T06:47:49;1.80;;;1.67;;
53391;SDS011;41667;51.922;8.850;2022-08-11T06:50:17;1.30;;;1.20;;
53391;SDS011;41667;51.922;8.850;2022-08-11T06:53:03;1.50;;;1.40;;
53391;SDS011;41667;51.922;8.850;2022-08-11T06:55:29;1.58;;;1.48;;
53391;SDS011;41667;51.922;8.850;2022-08-11T06:58:15;1.92;;;1.75;;
53391;SDS011;41667;51.922;8.850;2022-08-11T07:01:00;1.70;;;1.50;;
53391;SDS011;41667;51.922;8.850;2022-08-11T07:03:27;2.70;;;1.30;;
53391;SDS011;41667;51.922;8.850;2022-08-11T07:06:09;2.63;;;1.63;;
53391;SDS011;41667;51.922;8.850;2022-08-11T07:14:26;3.38;;;1.80;;
53391;SDS011;41667;51.922;8.850;2022-08-11T07:17:14;2.75;;;1.30;;
53391;SDS011;41667;51.922;8.850;2022-08-11T07:19:41;1.30;;;1.20;;
53391;SDS011;41667;51.922;8.850;2022-08-11T07:22:26;2.72;;;1.63;;
53391;SDS011;41667;51.922;8.850;2022-08-11T07:25:13;3.40;;;1.42;;
53391;SDS011;41667;51.922;8.850;2022-08-11T07:28:05;2.30;;;1.52;;
53391;SDS011;41667;51.922;8.850;2022-08-11T07:30:49;1.27;;;1.23;;
53391;SDS011;41667;51.922;8.850;2022-08-11T07:33:18;2.40;;;1.38;;
53391;SDS011;41667;51.922;8.850;2022-08-11T07:35:50;3.35;;;1.38;;
53391;SDS011;41667;51.922;8.850;2022-08-11T07:38:29;3.30;;;1.25;;
53391;SDS011;41667;51.922;8.850;2022-08-11T07:41:11;2.72;;;1.10;;
53391;SDS011;41667;51.922;8.850;2022-08-11T07:43:37;2.80;;;0.88;;
53391;SDS011;41667;51.922;8.850;2022-08-11T07:46:03;3.25;;;1.20;;
53391;SDS011;41667;51.922;8.850;2022-08-11T07:48:47;1.30;;;1.20;;
53391;SDS011;41667;51.922;8.850;2022-08-11T07:51:31;1.52;;;1.20;;
53391;SDS011;41667;51.922;8.850;2022-08-11T07:54:15;1.30;;;1.20;;
53391;SDS011;41667;51.922;8.850;2022-08-11T07:56:41;3.13;;;1.23;;
53391;SDS011;41667;51.922;8.850;2022-08-11T07:59:08;3.78;;;1.67;;
53391;SDS011;41667;51.922;8.850;2022-08-11T08:01:52;1.85;;;1.20;;
53391;SDS011;41667;51.922;8.850;2022-08-11T08:04:36;3.60;;;1.30;;
53391;SDS011;41667;51.922;8.850;2022-08-11T08:07:20;2.70;;;1.52;;
53391;SDS011;41667;51.922;8.850;2022-08-11T08:10:07;4.30;;;1.80;;
53391;SDS011;41667;51.922;8.850;2022-08-11T08:12:53;4.18;;;1.30;;
53391;SDS011;41667;51.922;8.850;2022-08-11T08:15:36;2.25;;;1.73;;
53391;SDS011;41667;51.922;8.850;2022-08-11T08:18:21;1.40;;;1.30;;
53391;SDS011;41667;51.922;8.850;2022-08-11T08:20:48;3.08;;;1.67;;
53391;SDS011;41667;51.922;8.850;2022-08-11T08:23:18;2.35;;;1.40;;
53391;SDS011;41667;51.922;8.850;2022-08-11T08:25:57;2.42;;;1.40;;
53391;SDS011;41667;51.922;8.850;2022-08-11T08:28:25;1.52;;;1.40;;
53391;SDS011;41667;51.922;8.850;2022-08-11T08:30:50;3.83;;;1.23;;
53391;SDS011;41667;51.922;8.850;2022-08-11T08:33:27;2.63;;;1.30;;
53391;SDS011;41667;51.922;8.850;2022-08-11T08:35:56;4.25;;;1.48;;
53391;SDS011;41667;51.922;8.850;2022-08-11T08:38:56;2.20;;;1.45;;
53391;SDS011;41667;51.922;8.850;2022-08-11T08:41:24;1.67;;;1.58;;
53391;SDS011;41667;51.922;8.850;2022-08-11T08:43:52;4.07;;;1.70;;
53391;SDS011;41667;51.922;8.850;2022-08-11T08:46:19;3.28;;;1.58;;
53391;SDS011;41667;51.922;8.850;2022-08-11T08:48:46;2.42;;;1.35;;
53391;SDS011;41667;51.922;8.850;2022-08-11T08:51:11;2.85;;;1.70;;
53391;SDS011;41667;51.922;8.850;2022-08-11T08:53:58;5.43;;;1.48;;
53391;SDS011;41667;51.922;8.850;2022-08-11T08:56:26;1.92;;;1.50;;
53391;SDS011;41667;51.922;8.850;2022-08-11T08:58:52;3.80;;;2.05;;
53391;SDS011;41667;51.922;8.850;2022-08-11T09:01:17;3.58;;;1.63;;
53391;SDS011;41667;51.922;8.850;2022-08-11T09:03:44;3.53;;;1.90;;
53391;SDS011;41667;51.922;8.850;2022-08-11T09:06:09;3.75;;;1.67;;
53391;SDS011;41667;51.922;8.850;2022-08-11T09:08:35;2.85;;;1.60;;
53391;SDS011;41667;51.922;8.850;2022-08-11T09:11:01;3.15;;;1.80;;
53391;SDS011;41667;51.922;8.850;2022-08-11T09:13:45;1.98;;;1.73;;
53391;SDS011;41667;51.922;8.850;2022-08-11T09:16:11;1.98;;;1.38;;
53391;SDS011;41667;51.922;8.850;2022-08-11T09:18:36;1.50;;;1.40;;
53391;SDS011;41667;51.922;8.850;2022-08-11T09:21:02;5.30;;;2.10;;
53391;SDS011;41667;51.922;8.850;2022-08-11T09:23:27;2.30;;;1.63;;
53391;SDS011;41667;51.922;8.850;2022-08-11T09:26:11;2.50;;;2.17;;
53391;SDS011;41667;51.922;8.850;2022-08-11T09:28:56;2.67;;;1.90;;
53391;SDS011;41667;51.922;8.850;2022-08-11T09:31:21;5.07;;;3.25;;
53391;SDS011;41667;51.922;8.850;2022-08-11T09:33:47;1.58;;;1.48;;
53391;SDS011;41667;51.922;8.850;2022-08-11T09:36:13;3.88;;;1.77;;
53391;SDS011;41667;51.922;8.850;2022-08-11T09:38:56;3.53;;;2.00;;
53391;SDS011;41667;51.922;8.850;2022-08-11T09:41:40;3.05;;;2.03;;
53391;SDS011;41667;51.922;8.850;2022-08-11T09:44:07;4.15;;;1.88;;
53391;SDS011;41667;51.922;8.850;2022-08-11T09:46:52;6.05;;;2.55;;
53391;SDS011;41667;51.922;8.850;2022-08-11T09:49:19;3.05;;;2.22;;
53391;SDS011;41667;51.922;8.850;2022-08-11T09:51:45;2.85;;;2.42;;
53391;SDS011;41667;51.922;8.850;2022-08-11T09:54:11;2.03;;;1.83;;
53391;SDS011;41667;51.922;8.850;2022-08-11T09:56:36;4.75;;;2.33;;
53391;SDS011;41667;51.922;8.850;2022-08-11T09:59:20;3.35;;;2.55;;
53391;SDS011;41667;51.922;8.850;2022-08-11T10:01:46;2.28;;;1.98;;
53391;SDS011;41667;51.922;8.850;2022-08-11T10:04:21;2.38;;;1.77;;
53391;SDS011;41667;51.922;8.850;2022-08-11T10:06:49;2.35;;;1.63;;
53391;SDS011;41667;51.922;8.850;2022-08-11T10:09:33;4.88;;;1.95;;
53391;SDS011;41667;51.922;8.850;2022-08-11T10:11:59;1.80;;;1.70;;
53391;SDS011;41667;51.922;8.850;2022-08-11T10:14:27;1.90;;;1.80;;
53391;SDS011;41667;51.922;8.850;2022-08-11T10:17:12;2.05;;;1.90;;
53391;SDS011;41667;51.922;8.850;2022-08-11T10:19:38;2.35;;;2.20;;
53391;SDS011;41667;51.922;8.850;2022-08-11T10:22:05;4.75;;;2.00;;
53391;SDS011;41667;51.922;8.850;2022-08-11T10:24:48;2.35;;;2.00;;
53391;SDS011;41667;51.922;8.850;2022-08-11T10:27:33;2.45;;;2.00;;
53391;SDS011;41667;51.922;8.850;2022-08-11T10:29:59;2.65;;;2.13;;
53391;SDS011;41667;51.922;8.850;2022-08-11T10:32:43;3.10;;;2.20;;
53391;SDS011;41667;51.922;8.850;2022-08-11T10:35:27;2.47;;;1.83;;
53391;SDS011;41667;51.922;8.850;2022-08-11T10:37:53;2.95;;;1.98;;
53391;SDS011;41667;51.922;8.850;2022-08-11T10:40:19;4.25;;;1.65;;
53391;SDS011;41667;51.922;8.850;2022-08-11T10:42:51;6.18;;;2.35;;
53391;SDS011;41667;51.922;8.850;2022-08-11T10:45:28;3.40;;;2.00;;
53391;SDS011;41667;51.922;8.850;2022-08-11T10:48:12;3.50;;;2.10;;
53391;SDS011;41667;51.922;8.850;2022-08-11T10:50:37;2.17;;;2.00;;
53391;SDS011;41667;51.922;8.850;2022-08-11T10:53:22;4.03;;;2.10;;
53391;SDS011;41667;51.922;8.850;2022-08-11T10:56:06;3.25;;;2.03;;
53391;SDS011;41667;51.922;8.850;2022-08-11T10:58:50;2.55;;;1.90;;
53391;SDS011;41667;51.922;8.850;2022-08-11T11:01:22;2.92;;;1.65;;
53391;SDS011;41667;51.922;8.850;2022-08-11T11:03:54;2.60;;;1.98;;
53391;SDS011;41667;51.922;8.850;2022-08-11T11:06:21;4.93;;;2.35;;
53391;SDS011;41667;51.922;8.850;2022-08-11T11:08:50;2.95;;;2.00;;
53391;SDS011;41667;51.922;8.850;2022-08-11T11:11:19;3.80;;;2.08;;
53391;SDS011;41667;51.922;8.850;2022-08-11T11:13:46;2.30;;;1.70;;
53391;SDS011;41667;51.922;8.850;2022-08-11T11:16:32;2.05;;;1.88;;
53391;SDS011;41667;51.922;8.850;2022-08-11T11:19:17;1.77;;;1.67;;
53391;SDS011;41667;51.922;8.850;2022-08-11T11:21:44;2.33;;;1.67;;
53391;SDS011;41667;51.922;8.850;2022-08-11T11:29:29;2.92;;;1.95;;
53391;SDS011;41667;51.922;8.850;2022-08-11T11:34:35;3.17;;;2.10;;
53391;SDS011;41667;51.922;8.850;2022-08-11T11:37:03;3.15;;;1.55;;
53391;SDS011;41667;51.922;8.850;2022-08-11T11:39:30;4.38;;;2.30;;
53391;SDS011;41667;51.922;8.850;2022-08-11T11:41:57;2.67;;;1.80;;
53391;SDS011;41667;51.922;8.850;2022-08-11T11:44:23;1.42;;;1.35;;
53391;SDS011;41667;51.922;8.850;2022-08-11T11:46:49;3.90;;;2.10;;
53391;SDS011;41667;51.922;8.850;2022-08-11T11:49:18;1.90;;;1.80;;
53391;SDS011;41667;51.922;8.850;2022-08-11T11:51:48;3.50;;;1.80;;
53391;SDS011;41667;51.922;8.850;2022-08-11T11:54:13;3.67;;;1.77;;
53391;SDS011;41667;51.922;8.850;2022-08-11T11:56:39;3.97;;;1.73;;
53391;SDS011;41667;51.922;8.850;2022-08-11T11:59:05;1.50;;;1.40;;
53391;SDS011;41667;51.922;8.850;2022-08-11T12:01:49;2.33;;;1.55;;
53391;SDS011;41667;51.922;8.850;2022-08-11T12:04:15;1.73;;;1.63;;
53391;SDS011;41667;51.922;8.850;2022-08-11T12:06:40;3.47;;;1.90;;
53391;SDS011;41667;51.922;8.850;2022-08-11T12:09:06;2.40;;;1.50;;
53391;SDS011;41667;51.922;8.850;2022-08-11T12:11:31;1.98;;;1.73;;
53391;SDS011;41667;51.922;8.850;2022-08-11T12:14:17;6.28;;;1.80;;
53391;SDS011;41667;51.922;8.850;2022-08-11T12:16:43;2.17;;;1.80;;
53391;SDS011;41667;51.922;8.850;2022-08-11T12:19:10;3.35;;;2.10;;
53391;SDS011;41667;51.922;8.850;2022-08-11T12:21:36;3.08;;;1.92;;
53391;SDS011;41667;51.922;8.850;2022-08-11T12:24:02;5.15;;;1.60;;
53391;SDS011;41667;51.922;8.850;2022-08-11T12:26:46;5.38;;;1.40;;
53391;SDS011;41667;51.922;8.850;2022-08-11T12:29:12;4.53;;;1.70;;
53391;SDS011;41667;51.922;8.850;2022-08-11T12:31:38;2.83;;;1.70;;
53391;SDS011;41667;51.922;8.850;2022-08-11T12:34:04;1.63;;;1.52;;
53391;SDS011;41667;51.922;8.850;2022-08-11T12:36:33;1.50;;;1.40;;
53391;SDS011;41667;51.922;8.850;2022-08-11T12:38:58;2.80;;;1.77;;
53391;SDS011;41667;51.922;8.850;2022-08-11T12:41:24;1.98;;;1.70;;
53391;SDS011;41667;51.922;8.850;2022-08-11T12:44:08;5.10;;;1.60;;
53391;SDS011;41667;51.922;8.850;2022-08-11T12:46:53;8.18;;;1.77;;
53391;SDS011;41667;51.922;8.850;2022-08-11T12:49:20;1.90;;;1.50;;
53391;SDS011;41667;51.922;8.850;2022-08-11T12:52:05;2.38;;;1.60;;
53391;SDS011;41667;51.922;8.850;2022-08-11T12:57:01;2.50;;;1.40;;
53391;SDS011;41667;51.922;8.850;2022-08-11T12:59:45;2.97;;;2.00;;
53391;SDS011;41667;51.922;8.850;2022-08-11T13:02:29;1.75;;;1.60;;
53391;SDS011;41667;51.922;8.850;2022-08-11T13:05:14;5.45;;;1.73;;
53391;SDS011;41667;51.922;8.850;2022-08-11T13:07:41;8.60;;;1.67;;
53391;SDS011;41667;51.922;8.850;2022-08-11T13:10:07;3.50;;;1.58;;
53391;SDS011;41667;51.922;8.850;2022-08-11T13:12:33;1.90;;;1.80;;
53391;SDS011;41667;51.922;8.850;2022-08-11T13:15:15;2.17;;;1.63;;
53391;SDS011;41667;51.922;8.850;2022-08-11T13:17:41;4.75;;;1.92;;
53391;SDS011;41667;51.922;8.850;2022-08-11T13:20:07;2.30;;;1.77;;
53391;SDS011;41667;51.922;8.850;2022-08-11T13:22:34;2.08;;;1.80;;
53391;SDS011;41667;51.922;8.850;2022-08-11T13:24:59;5.05;;;1.65;;
53391;SDS011;41667;51.922;8.850;2022-08-11T13:27:24;1.87;;;1.50;;
53391;SDS011;41667;51.922;8.850;2022-08-11T13:29:50;2.72;;;1.65;;
53391;SDS011;41667;51.922;8.850;2022-08-11T13:32:18;2.53;;;1.60;;
53391;SDS011;41667;51.922;8.850;2022-08-11T13:34:44;1.45;;;1.40;;
53391;SDS011;41667;51.922;8.850;2022-08-11T13:37:10;1.70;;;1.60;;
53391;SDS011;41667;51.922;8.850;2022-08-11T13:39:37;1.75;;;1.50;;
53391;SDS011;41667;51.922;8.850;2022-08-11T13:42:04;2.83;;;1.60;;
53391;SDS011;41667;51.922;8.850;2022-08-11T13:44:30;2.03;;;1.48;;
53391;SDS011;41667;51.922;8.850;2022-08-11T13:46:58;2.22;;;1.38;;
53391;SDS011;41667;51.922;8.850;2022-08-11T13:49:25;3.70;;;1.50;;
53391;SDS011;41667;51.922;8.850;2022-08-11T13:51:50;1.80;;;1.25;;
53391;SDS011;41667;51.922;8.850;2022-08-11T13:54:22;2.70;;;1.42;;
53391;SDS011;41667;51.922;8.850;2022-08-11T13:56:51;3.50;;;1.67;;
53391;SDS011;41667;51.922;8.850;2022-08-11T13:59:17;2.50;;;1.60;;
53391;SDS011;41667;51.922;8.850;2022-08-11T14:01:46;1.67;;;1.58;;
53391;SDS011;41667;51.922;8.850;2022-08-11T14:04:13;1.90;;;1.40;;
53391;SDS011;41667;51.922;8.850;2022-08-11T14:06:40;4.82;;;1.58;;
53391;SDS011;41667;51.922;8.850;2022-08-11T14:09:09;4.28;;;1.65;;
53391;SDS011;41667;51.922;8.850;2022-08-11T14:11:34;1.95;;;1.38;;
53391;SDS011;41667;51.922;8.850;2022-08-11T14:14:20;2.70;;;1.40;;
53391;SDS011;41667;51.922;8.850;2022-08-11T14:16:46;1.35;;;1.30;;
53391;SDS011;41667;51.922;8.850;2022-08-11T14:19:12;1.83;;;1.50;;
53391;SDS011;41667;51.922;8.850;2022-08-11T14:21:40;2.80;;;1.75;;
53391;SDS011;41667;51.922;8.850;2022-08-11T14:24:25;1.70;;;1.60;;
53391;SDS011;41667;51.922;8.850;2022-08-11T14:26:50;2.97;;;1.55;;
53391;SDS011;41667;51.922;8.850;2022-08-11T14:29:16;4.78;;;1.85;;
53391;SDS011;41667;51.922;8.850;2022-08-11T14:31:44;3.60;;;1.55;;
53391;SDS011;41667;51.922;8.850;2022-08-11T14:34:10;6.00;;;1.67;;
53391;SDS011;41667;51.922;8.850;2022-08-11T14:36:39;1.48;;;1.38;;
53391;SDS011;41667;51.922;8.850;2022-08-11T14:39:06;4.10;;;1.40;;
53391;SDS011;41667;51.922;8.850;2022-08-11T14:41:32;1.80;;;1.70;;
53391;SDS011;41667;51.922;8.850;2022-08-11T14:44:15;3.95;;;1.80;;
53391;SDS011;41667;51.922;8.850;2022-08-11T14:47:00;1.30;;;1.30;;
53391;SDS011;41667;51.922;8.850;2022-08-11T14:49:28;3.28;;;1.55;;
53391;SDS011;41667;51.922;8.850;2022-08-11T14:51:54;5.57;;;1.60;;
53391;SDS011;41667;51.922;8.850;2022-08-11T14:54:28;1.23;;;1.23;;
53391;SDS011;41667;51.922;8.850;2022-08-11T14:57:12;1.75;;;1.65;;
53391;SDS011;41667;51.922;8.850;2022-08-11T14:59:38;4.13;;;1.60;;
53391;SDS011;41667;51.922;8.850;2022-08-11T15:02:03;2.40;;;1.40;;
53391;SDS011;41667;51.922;8.850;2022-08-11T15:04:47;3.45;;;1.75;;
53391;SDS011;41667;51.922;8.850;2022-08-11T15:07:13;5.55;;;1.83;;
53391;SDS011;41667;51.922;8.850;2022-08-11T15:09:41;5.03;;;2.00;;
53391;SDS011;41667;51.922;8.850;2022-08-11T15:12:08;2.63;;;1.83;;
53391;SDS011;41667;51.922;8.850;2022-08-11T15:14:33;3.47;;;1.70;;
53391;SDS011;41667;51.922;8.850;2022-08-11T15:17:17;3.55;;;1.50;;
53391;SDS011;41667;51.922;8.850;2022-08-11T15:19:43;1.65;;;1.55;;
53391;SDS011;41667;51.922;8.850;2022-08-11T15:22:28;3.97;;;1.70;;
53391;SDS011;41667;51.922;8.850;2022-08-11T15:25:12;4.78;;;1.98;;
53391;SDS011;41667;51.922;8.850;2022-08-11T15:27:37;2.83;;;1.63;;
53391;SDS011;41667;51.922;8.850;2022-08-11T15:30:22;2.42;;;1.90;;
53391;SDS011;41667;51.922;8.850;2022-08-11T15:33:07;4.32;;;1.95;;
53391;SDS011;41667;51.922;8.850;2022-08-11T15:35:51;3.42;;;1.58;;
53391;SDS011;41667;51.922;8.850;2022-08-11T15:38:38;3.80;;;1.73;;
53391;SDS011;41667;51.922;8.850;2022-08-11T15:41:04;4.15;;;2.55;;
53391;SDS011;41667;51.922;8.850;2022-08-11T15:43:50;2.90;;;1.73;;
53391;SDS011;41667;51.922;8.850;2022-08-11T15:46:40;2.55;;;1.80;;
53391;SDS011;41667;51.922;8.850;2022-08-11T15:49:13;3.03;;;2.15;;
53391;SDS011;41667;51.922;8.850;2022-08-11T15:51:43;3.75;;;1.85;;
53391;SDS011;41667;51.922;8.850;2022-08-11T15:54:10;2.85;;;1.70;;
53391;SDS011;41667;51.922;8.850;2022-08-11T15:56:38;3.08;;;2.00;;
53391;SDS011;41667;51.922;8.850;2022-08-11T15:59:05;3.58;;;1.90;;
53391;SDS011;41667;51.922;8.850;2022-08-11T16:01:49;6.05;;;1.90;;
53391;SDS011;41667;51.922;8.850;2022-08-11T16:04:34;3.78;;;1.60;;
53391;SDS011;41667;51.922;8.850;2022-08-11T16:07:01;3.08;;;1.95;;
53391;SDS011;41667;51.922;8.850;2022-08-11T16:09:37;3.85;;;1.88;;
53391;SDS011;41667;51.922;8.850;2022-08-11T16:12:05;6.45;;;2.20;;
53391;SDS011;41667;51.922;8.850;2022-08-11T16:14:32;3.88;;;2.25;;
53391;SDS011;41667;51.922;8.850;2022-08-11T16:17:17;2.03;;;1.80;;
53391;SDS011;41667;51.922;8.850;2022-08-11T16:19:43;2.95;;;2.00;;
53391;SDS011;41667;51.922;8.850;2022-08-11T16:22:10;2.78;;;1.90;;
53391;SDS011;41667;51.922;8.850;2022-08-11T16:24:37;2.75;;;1.90;;
53391;SDS011;41667;51.922;8.850;2022-08-11T16:27:02;8.77;;;2.15;;
53391;SDS011;41667;51.922;8.850;2022-08-11T16:29:28;4.18;;;2.05;;
53391;SDS011;41667;51.922;8.850;2022-08-11T16:31:55;6.93;;;2.42;;
53391;SDS011;41667;51.922;8.850;2022-08-11T16:34:44;5.88;;;2.13;;
53391;SDS011;41667;51.922;8.850;2022-08-11T16:37:29;2.22;;;1.65;;
53391;SDS011;41667;51.922;8.850;2022-08-11T16:40:15;1.90;;;1.80;;
53391;SDS011;41667;51.922;8.850;2022-08-11T16:42:41;6.20;;;2.00;;
53391;SDS011;41667;51.922;8.850;2022-08-11T16:45:25;4.93;;;2.10;;
53391;SDS011;41667;51.922;8.850;2022-08-11T16:48:10;3.03;;;1.95;;
53391;SDS011;41667;51.922;8.850;2022-08-11T16:50:36;6.53;;;1.70;;
53391;SDS011;41667;51.922;8.850;2022-08-11T16:53:03;3.58;;;1.70;;
53391;SDS011;41667;51.922;8.850;2022-08-11T16:55:28;2.63;;;2.30;;
53391;SDS011;41667;51.922;8.850;2022-08-11T16:57:58;2.72;;;1.92;;
53391;SDS011;41667;51.922;8.850;2022-08-11T17:00:42;3.60;;;1.95;;
53391;SDS011;41667;51.922;8.850;2022-08-11T17:03:08;2.45;;;1.85;;
53391;SDS011;41667;51.922;8.850;2022-08-11T17:05:52;2.78;;;2.17;;
53391;SDS011;41667;51.922;8.850;2022-08-11T17:08:47;4.75;;;2.00;;
53391;SDS011;41667;51.922;8.850;2022-08-11T17:11:33;3.00;;;1.80;;
53391;SDS011;41667;51.922;8.850;2022-08-11T17:14:25;2.38;;;2.13;;
53391;SDS011;41667;51.922;8.850;2022-08-11T17:16:51;5.78;;;1.80;;
53391;SDS011;41667;51.922;8.850;2022-08-11T17:19:20;2.08;;;1.90;;
53391;SDS011;41667;51.922;8.850;2022-08-11T17:21:46;4.80;;;2.03;;
53391;SDS011;41667;51.922;8.850;2022-08-11T17:24:32;3.97;;;1.90;;
53391;SDS011;41667;51.922;8.850;2022-08-11T17:26:58;1.50;;;1.45;;
53391;SDS011;41667;51.922;8.850;2022-08-11T17:31:55;5.72;;;1.88;;
53391;SDS011;41667;51.922;8.850;2022-08-11T17:34:39;4.15;;;1.80;;
53391;SDS011;41667;51.922;8.850;2022-08-11T17:37:24;4.65;;;1.83;;
53391;SDS011;41667;51.922;8.850;2022-08-11T17:39:50;1.60;;;1.50;;
53391;SDS011;41667;51.922;8.850;2022-08-11T17:42:16;2.05;;;1.63;;
53391;SDS011;41667;51.922;8.850;2022-08-11T17:45:01;1.50;;;1.45;;
53391;SDS011;41667;51.922;8.850;2022-08-11T17:47:46;6.25;;;1.92;;
53391;SDS011;41667;51.922;8.850;2022-08-11T17:50:30;2.75;;;2.08;;
53391;SDS011;41667;51.922;8.850;2022-08-11T17:52:56;2.00;;;1.88;;
53391;SDS011;41667;51.922;8.850;2022-08-11T17:55:41;2.15;;;2.00;;
53391;SDS011;41667;51.922;8.850;2022-08-11T17:58:25;2.88;;;1.92;;